Warning: Javascript must be enabled to use all the features on this page!


Page Loading - Please Wait...

Click to hideNews Bulletins

Peak Streamflow for the Nation

USGS 04242500 EAST BRANCH FISH CREEK AT TABERG NY

Oneida County, New York
Hydrologic Unit Code 04140202
Latitude  43°18'02.6", Longitude  75°37'22.4" NAD83
Drainage area 188  square miles
Gage datum 484.57 feet above NAVD88
Output formats
Table
Graph
Tab-separated file
peakfq (watstore) format
Reselect output format
Water
Year
Date Gage
Height
(feet)
Stream-
flow
(cfs)
1924 1924-04-06 8.503 9,860
1925 1925-02-24 5.201,3 4,060
1926 1926-04-25 7.603 8,190
1927 1926-11-16 6.153 5,800
1928 1928-04-08 7.703 8,360
1929 1929-03-16 6.003 5,540
1930 1930-01-08 8.103 9,040
1931 1931-04-11 5.533 4,800
1932 1932-01-18 5.483 4,550
1933 1932-10-06 9.183 10,700
1934 1933-11-30 6.523 6,130
1935 1935-01-10 6.413 5,760
1936 1936-03-18 6.353 6,050
1937 1937-01-15 5.703 4,900
1938 1938-03-24 6.801,3 5,910
1939 1939-04-26 5.313 4,280
1940 1940-04-18 6.633 6,470
1941 1940-12-30 7.523 7,780
1942 1941-12-25 7.583 7,730
1943 1943-05-01 6.743 6,220
1944 1944-04-24 6.583 5,930
1945 1945-03-22 7.183 7,100
1946 1945-10-02 10.903 13,600
1947 1947-04-12 8.043 9,060
1948 1948-03-22 8.143 9,220
1949 1949-03-28 5.663 5,340
1950 1950-04-05 5.803 5,550
1951 1951-03-31 7.253 7,800
1952 1952-04-06 6.823 7,110
1953 1952-12-11 8.753 10,200
1954 1954-04-17 7.873 8,790
1955 1955-04-15 6.573 6,600
1956 1956-04-16 5.933 5,510
1957 1957-01-23 5.343 4,540
1958 1957-12-21 8.943 10,500
1959 1959-04-20 5.203 4,600
1960 1960-04-24 7.483 8,170
1961 1961-04-24 5.453 4,980
1962 1962-04-23 6.963 7,340
1963 1963-04-04 8.843 10,300
1964 1964-04-14 7.233 7,770
1965 1965-04-22 5.553 5,120
1966 1965-11-17 5.042,3 4,360
1967 1967-04-03 6.933 6,900
1968 1968-04-01 6.723 6,580
1969 1969-05-20 11.003,6 11,800
1970 1970-04-25 5.543 3,480
1971 1971-05-09 6.203 5,020
1972 1972-06-22 11.713 14,5009
1973 1973-03-18 7.003 5,800
1974 1973-12-27   7,6002
1975 1975-09-26 8.763 9,750
1976 1976-04-01 8.623 9,390
1977 1977-04-14 7.013 6,060
1978 1978-09-12 7.913 7,880
1979 1979-03-25 7.133 6,270
1980 1980-04-09 10.273 11,200
1981 1981-02-23   9,0002
1982 1982-04-18 9.203 9,920
1983 1983-04-16 6.393 4,520
1984 1983-12-14 6.913 5,780
1985 1984-12-29 13.813 21,6009
1986 1986-03-31 6.733 5,450
1987 1987-03-31 5.603 3,640
1988 1988-04-04 6.493 5,030
1989 1989-03-29 6.063 4,330
1990 1990-03-17 6.943 5,810
1991 1990-12-30 8.573 8,910
1992 1992-04-12 7.303 6,570
1993 1993-04-10 9.073 11,100
1994 1994-04-16 6.843 5,880
1995 1995-01-16 5.683 4,200
2009 2009-04-04 8.286 10,900
2010 2010-08-23 7.69 8,520
2011 2011-04-28 9.95 16,600
2012 2011-12-16 7.62 3,400
2013 2013-01-31 9.20 7,800
2014 2014-04-15 9.77 9,490
2015 2015-04-14 8.37 5,700
2016 2016-03-11 8.65 6,360
2017 2017-04-07 8.96 8,240
2018 2018-01-13 9.532 9,520
2019 2019-05-10 8.08 5,070
2020 2019-11-01 12.15 13,9002,R
2021 2021-08-19 12.52 11,4009
?
  Peak Gage-Height Qualification Codes.
?
  Peak Streamflow Qualification Codes.